Amherst, CO

9:32 PM MDT on September 16, 2014 (GMT -0600)
Holyoke Municipal | Change Station
CLOSE
Current Station
Airport
Location: Holyoke AP, Holyoke, CO,
Elevation: 3730 ft
Nearby Weather Stations

Elev 3730 ft 40.57 °N, 102.28 °W | Updated 17 minutes ago

Clear
Clear
61 °F
Feels Like 61 °F
N
7
Wind Variable Wind from South

Today
High -- | Low -- °F
--% Chance of Precip.
Yesterday
High -- | Low -- °F
Precip. -- in
6:30 AM 6:55 PM
Last Quarter, 40% visible
Pressure 30.02 in
Visibility 10.0 miles
Clouds Clear
Dew Point 52 °F
Humidity 72%
Rainfall 0.00 in
Snow Depth 4 in , 0 in , 0 in
UV 0 out of 12
Pollen 5.50 out of 12
Air Quality Not available.
Flu Activity Not available.
METAR KHEQ 170315Z AUTO 18006KT 10SM CLR 16/11 A3002 RMK AO2

More Conditions Fewer Conditions

Pressure 30.02 in
Visibility 10.0 miles
Clouds Clear
Dew Point 52 °F
Humidity 72%
Rainfall 0.00 in
Snow Depth 4 in , 0 in , 0 in
UV 0 out of 12
Pollen 5.50 out of 12
Air Quality Not available.
Flu Activity Not available.
METAR KHEQ 170315Z AUTO 18006KT 10SM CLR 16/11 A3002 RMK AO2

More Conditions Fewer Conditions

10-Day Weather Forecast

Almanac

Astronomy

Sep. 16, 2014 Rise Set
Actual Time 6:30 AM MDT 6:55 PM MDT
Civil Twilight 6:02 AM MDT 7:23 PM MDT
Nautical Twilight 5:30 AM MDT 7:55 PM MDT
Astronomical Twilight 4:57 AM MDT 8:28 PM MDT
Moon No Moon Rise 2:22 PM MDT (9/16)
Length of Visible Light 13h 20m
Length of Day
12h 25m
Tomorrow will be 2m 41s shorter.
Last Quarter, 40% of the Moon is Illuminated
Today
Last Quarter
Sep 24
New
Oct 1
First Quarter
Oct 8
Full
Oct 15
Last Quarter

Today's Extremes

State Highs State Lows

Community

WunderPhotos

Upload Photos

1,753,954 photos uploaded!

Nearby

Snow Depth

Station Depth Elevation
Loveland Basin 4 in 11400 ft
Ute Creek 0 in 10650 ft
Overland Reservoir 0 in 9880 ft
Joe Wright 0 in 10120 ft
Independence Pass 187 in 10600 ft

Earthquake Activity

City Distance Mag. Time & Date
No recent earthquake activity has been reported nearby.
Minimum magnitude displayed is 2.5.

Coastal Water Temperatures

Place Temperature
No Stations Reporting

Nearby Weather Stations